createdAt,value
2022-12-05T00:03:16.398Z,2.90
2022-12-05T00:08:18.828Z,2.90
2022-12-05T00:13:20.567Z,2.90
2022-12-05T00:18:22.220Z,2.90
2022-12-05T00:23:23.909Z,2.80
2022-12-05T00:28:25.660Z,2.80
2022-12-05T00:33:27.370Z,2.70
2022-12-05T00:38:29.051Z,2.60
2022-12-05T00:43:30.835Z,2.50
2022-12-05T00:48:32.893Z,2.50
2022-12-05T00:53:35.145Z,2.40
2022-12-05T00:58:37.553Z,2.30
2022-12-05T01:03:39.761Z,2.20
2022-12-05T01:08:42.523Z,2.10
2022-12-05T01:13:44.459Z,2.10
2022-12-05T01:18:55.324Z,2.00
2022-12-05T01:23:57.026Z,1.90
2022-12-05T01:28:58.792Z,1.90
2022-12-05T01:34:02.239Z,1.80
2022-12-05T01:39:03.923Z,1.70
2022-12-05T01:44:06.682Z,1.70
2022-12-05T01:49:11.421Z,1.60
2022-12-05T01:54:13.870Z,1.60
2022-12-05T01:59:18.045Z,1.60
2022-12-05T02:04:19.757Z,1.50
2022-12-05T02:09:22.509Z,1.50
2022-12-05T02:14:30.402Z,1.40
2022-12-05T02:19:58.731Z,1.40
2022-12-05T02:25:25.635Z,1.40
2022-12-05T02:30:57.720Z,1.30
2022-12-05T02:36:08.073Z,1.30
2022-12-05T02:41:21.807Z,1.30
2022-12-05T02:46:27.119Z,1.30
2022-12-05T02:51:33.576Z,1.30
2022-12-05T02:56:37.097Z,1.20
2022-12-05T03:01:39.592Z,1.30
2022-12-05T03:06:53.206Z,1.20
2022-12-05T03:12:28.996Z,1.20
2022-12-05T03:17:36.996Z,1.20
2022-12-05T03:22:53.606Z,1.20
2022-12-05T03:28:18.881Z,1.20
2022-12-05T03:33:27.642Z,1.20
2022-12-05T03:38:45.278Z,1.20
2022-12-05T03:43:57.159Z,1.20
2022-12-05T03:49:09.578Z,1.20
2022-12-05T03:54:20.037Z,1.20
2022-12-05T03:59:44.438Z,1.20
2022-12-05T04:04:58.855Z,1.20
2022-12-05T04:10:08.595Z,1.10
2022-12-05T04:15:20.525Z,1.20
2022-12-05T04:20:48.122Z,1.20
2022-12-05T04:26:02.371Z,1.20
2022-12-05T04:31:16.067Z,1.10
2022-12-05T04:36:31.510Z,1.10
2022-12-05T04:41:38.818Z,1.10
2022-12-05T04:46:44.001Z,1.10
2022-12-05T04:51:50.790Z,1.10
2022-12-05T04:57:01.250Z,1.10
2022-12-05T05:02:10.025Z,1.20
2022-12-05T05:07:13.827Z,1.10
2022-12-05T05:12:19.218Z,1.20
2022-12-05T05:17:21.121Z,1.20
2022-12-05T05:22:22.745Z,1.20
2022-12-05T05:27:24.358Z,1.20
2022-12-05T05:32:25.959Z,1.10
2022-12-05T05:37:27.606Z,1.20
2022-12-05T05:42:29.523Z,1.20
2022-12-05T05:47:31.529Z,1.20
2022-12-05T05:52:36.882Z,1.20
2022-12-05T05:57:38.511Z,1.20
2022-12-05T06:02:40.288Z,1.20
2022-12-05T06:07:42.238Z,1.20
2022-12-05T06:12:43.903Z,1.20
2022-12-05T06:17:45.597Z,1.20
2022-12-05T06:22:47.242Z,1.20
2022-12-05T06:27:48.926Z,1.20
2022-12-05T06:32:50.613Z,1.20
2022-12-05T06:37:53.053Z,1.20
2022-12-05T06:42:54.778Z,1.20
2022-12-05T06:47:56.407Z,1.20
2022-12-05T06:52:58.072Z,1.20
2022-12-05T06:57:59.793Z,1.30
2022-12-05T07:03:01.538Z,1.30
2022-12-05T07:08:03.347Z,1.30
2022-12-05T07:13:05.101Z,1.30
2022-12-05T07:18:07.237Z,1.30
2022-12-05T07:23:09.484Z,1.30
2022-12-05T07:28:11.336Z,1.30
2022-12-05T07:33:13.117Z,1.30
2022-12-05T07:38:14.849Z,1.40
2022-12-05T07:43:16.698Z,1.70
2022-12-05T07:48:19.109Z,1.50
2022-12-05T07:53:20.875Z,1.50
2022-12-05T07:58:22.546Z,1.50
2022-12-05T08:03:24.318Z,1.50
2022-12-05T08:08:25.978Z,1.60
2022-12-05T08:13:31.680Z,1.60
2022-12-05T08:18:33.509Z,1.60
2022-12-05T08:23:37.485Z,1.60
2022-12-05T08:28:39.511Z,1.60
2022-12-05T08:33:41.948Z,1.70
2022-12-05T08:38:44.748Z,1.70
2022-12-05T08:43:46.477Z,1.70
2022-12-05T08:48:48.167Z,1.70
2022-12-05T08:53:49.912Z,1.80
2022-12-05T08:58:51.658Z,1.90
2022-12-05T09:03:53.492Z,1.90
2022-12-05T09:09:02.702Z,1.90
2022-12-05T09:14:08.696Z,1.90
2022-12-05T09:19:21.037Z,2.00
2022-12-05T09:24:23.256Z,2.00
2022-12-05T09:29:25.522Z,2.00
2022-12-05T09:34:27.239Z,2.10
2022-12-05T09:39:28.936Z,2.10
2022-12-05T09:45:08.334Z,2.20
2022-12-05T09:50:29.341Z,2.30
2022-12-05T09:55:45.978Z,2.30
2022-12-05T10:00:50.473Z,2.40
2022-12-05T10:06:17.192Z,2.40
2022-12-05T10:11:43.441Z,2.50
2022-12-05T10:16:54.880Z,2.50
2022-12-05T10:22:05.033Z,2.50
2022-12-05T10:27:08.832Z,2.50
2022-12-05T10:32:38.925Z,2.60
2022-12-05T10:37:59.127Z,2.60
2022-12-05T10:43:01.006Z,2.70
2022-12-05T10:48:02.752Z,2.80
2022-12-05T10:53:06.261Z,2.90
2022-12-05T10:58:17.649Z,2.90
2022-12-05T11:03:27.913Z,2.90
2022-12-05T11:09:02.697Z,3.00
2022-12-05T11:14:05.037Z,2.90
2022-12-05T11:19:30.364Z,2.90
2022-12-05T11:24:37.163Z,3.00
2022-12-05T11:29:39.311Z,3.00
2022-12-05T11:34:49.761Z,3.10
2022-12-05T11:39:52.546Z,3.10
2022-12-05T11:45:18.392Z,3.20
2022-12-05T11:50:45.638Z,3.30
2022-12-05T11:55:53.209Z,3.40
2022-12-05T12:01:26.653Z,3.40
2022-12-05T12:06:44.455Z,3.40
2022-12-05T12:12:09.866Z,3.50
2022-12-05T12:17:41.136Z,3.40
2022-12-05T12:23:19.773Z,3.50
2022-12-05T12:28:24.146Z,3.50
2022-12-05T12:34:01.502Z,3.60
2022-12-05T12:39:12.759Z,3.60
2022-12-05T12:44:26.615Z,3.60
2022-12-05T12:50:13.941Z,3.70
2022-12-05T12:55:45.352Z,3.70
2022-12-05T13:00:56.060Z,3.80
2022-12-05T13:06:15.554Z,3.70
2022-12-05T13:11:20.375Z,3.70
2022-12-05T13:16:38.863Z,3.70
2022-12-05T13:21:42.885Z,3.70
2022-12-05T13:26:49.805Z,3.70
2022-12-05T13:31:52.963Z,3.70
2022-12-05T13:37:16.534Z,3.70
2022-12-05T13:42:28.160Z,3.70
2022-12-05T13:47:32.880Z,3.60
2022-12-05T13:52:52.149Z,3.60
2022-12-05T13:57:56.225Z,3.60
2022-12-05T14:03:21.789Z,3.60
2022-12-05T14:08:51.761Z,3.60
2022-12-05T14:13:54.163Z,3.60
2022-12-05T14:19:20.635Z,3.60
2022-12-05T14:24:54.527Z,3.60
2022-12-05T14:30:19.355Z,3.50
2022-12-05T14:35:40.545Z,3.40
2022-12-05T14:40:44.412Z,3.40
2022-12-05T14:45:52.117Z,3.40
2022-12-05T14:50:55.558Z,3.30
2022-12-05T14:56:32.999Z,3.30
2022-12-05T15:01:43.779Z,3.30
2022-12-05T15:06:53.438Z,3.30
2022-12-05T15:11:56.154Z,3.30
2022-12-05T15:17:01.263Z,3.30
2022-12-05T15:22:07.240Z,3.20
2022-12-05T15:27:12.072Z,3.20
2022-12-05T15:32:20.332Z,3.20
2022-12-05T15:37:40.828Z,3.20
2022-12-05T15:42:47.698Z,3.10
2022-12-05T15:48:10.722Z,3.10
2022-12-05T15:53:20.569Z,3.10
2022-12-05T15:58:40.285Z,3.10
2022-12-05T16:04:31.021Z,3.10
2022-12-05T16:09:34.243Z,3.10
2022-12-05T16:20:32.035Z,3.00
2022-12-05T16:25:36.292Z,3.10
2022-12-05T16:30:38.182Z,3.00
2022-12-05T16:35:48.744Z,3.00
2022-12-05T16:40:54.918Z,3.00
2022-12-05T16:46:08.540Z,3.00
2022-12-05T16:51:21.984Z,3.00
2022-12-05T16:56:32.336Z,3.00
2022-12-05T17:01:38.967Z,3.10
2022-12-05T17:06:41.163Z,3.00
2022-12-05T17:11:45.787Z,2.90
2022-12-05T17:16:47.573Z,3.00
2022-12-05T17:21:49.431Z,3.00
2022-12-05T17:26:51.184Z,2.90
2022-12-05T17:31:52.973Z,3.00
2022-12-05T17:36:54.642Z,3.00
2022-12-05T17:41:56.401Z,3.00
2022-12-05T17:47:00.783Z,2.90
2022-12-05T17:52:21.369Z,3.00
2022-12-05T17:57:23.823Z,2.90
2022-12-05T18:02:25.507Z,2.90
2022-12-05T18:07:27.187Z,2.90
2022-12-05T18:12:28.851Z,2.90
2022-12-05T18:17:30.754Z,2.80
2022-12-05T18:22:32.578Z,2.80
2022-12-05T18:27:35.554Z,2.70
2022-12-05T18:32:37.493Z,2.70
2022-12-05T18:37:39.814Z,2.70
2022-12-05T18:42:41.436Z,2.60
2022-12-05T18:47:43.131Z,2.60
2022-12-05T18:52:44.848Z,2.60
2022-12-05T18:57:46.578Z,2.50
2022-12-05T19:02:48.674Z,2.50
2022-12-05T19:07:53.677Z,2.50
2022-12-05T19:12:56.013Z,2.50
2022-12-05T19:17:57.612Z,2.40
2022-12-05T19:23:01.098Z,2.50
2022-12-05T19:28:03.047Z,2.40
2022-12-05T19:33:04.768Z,2.50
2022-12-05T19:38:06.430Z,2.40
2022-12-05T19:43:08.066Z,2.40
2022-12-05T19:48:09.752Z,2.40
2022-12-05T19:53:12.330Z,2.40
2022-12-05T19:58:14.065Z,2.40
2022-12-05T20:03:15.855Z,2.30
2022-12-05T20:08:17.689Z,2.30
2022-12-05T20:13:45.154Z,2.40
2022-12-05T20:18:42.176Z,2.40
2022-12-05T20:23:43.829Z,2.40
2022-12-05T20:28:46.275Z,2.30
2022-12-05T20:33:50.348Z,2.30
2022-12-05T20:38:56.854Z,2.30
2022-12-05T20:44:05.496Z,2.30
2022-12-05T20:49:07.315Z,2.30
2022-12-05T20:54:12.594Z,2.30
2022-12-05T20:59:14.498Z,2.30
2022-12-05T21:04:16.204Z,2.40
2022-12-05T21:09:26.603Z,2.40
2022-12-05T21:14:28.504Z,2.40
2022-12-05T21:19:30.123Z,2.40
2022-12-05T21:24:31.751Z,2.40
2022-12-05T21:29:33.389Z,2.40
2022-12-05T21:34:35.429Z,2.40
2022-12-05T21:39:37.082Z,2.40
2022-12-05T21:44:38.790Z,2.40
2022-12-05T21:49:40.493Z,2.40
2022-12-05T21:54:42.287Z,2.40
2022-12-05T21:59:43.980Z,2.40
2022-12-05T22:04:45.590Z,2.40
2022-12-05T22:09:47.194Z,2.50
2022-12-05T22:14:49.166Z,2.40
2022-12-05T22:19:50.827Z,2.40
2022-12-05T22:24:52.818Z,2.40
2022-12-05T22:29:54.431Z,2.40
2022-12-05T22:34:59.268Z,2.50
2022-12-05T22:40:05.811Z,2.40
2022-12-05T22:45:07.990Z,2.50
2022-12-05T22:50:10.046Z,2.40
2022-12-05T22:55:11.659Z,2.50
2022-12-05T23:00:14.062Z,2.50
2022-12-05T23:05:15.857Z,2.50
2022-12-05T23:10:17.523Z,2.50
2022-12-05T23:15:19.260Z,2.50
2022-12-05T23:20:20.941Z,2.50
2022-12-05T23:25:22.729Z,2.50
2022-12-05T23:30:24.452Z,2.40
2022-12-05T23:35:26.564Z,2.40
2022-12-05T23:40:28.229Z,2.40
2022-12-05T23:45:29.921Z,2.40
2022-12-05T23:50:31.765Z,2.40
2022-12-05T23:55:36.377Z,2.40
